Time;durP1;ratioP1;P1;durP2;ratioP2;P2;SDS_P1;SDS_P2;PMS_P1;PMS_P2;Temp;Humidity;BMP_temperature;BMP_pressure;BME280_temperature;BME280_humidity;BME280_pressure;Samples;Min_cycle;Max_cycle;Signal;HPM_P1;HPM_P2
2021/08/04 00:02:18;;;;;;;10.95;7.80;;;;;;;15.02;95.37;100875.66;4987655;28;20037;-81
2021/08/04 00:04:43;;;;;;;9.55;7.85;;;;;;;15.01;95.59;100879.38;5017662;28;20057;-80
2021/08/04 00:07:09;;;;;;;9.98;8.00;;;;;;;15.01;95.74;100890.16;4986429;28;20043;-80
2021/08/04 00:09:35;;;;;;;10.38;8.07;;;;;;;15.01;95.72;100878.53;5000349;28;20484;-82
2021/08/04 00:12:01;;;;;;;13.05;8.23;;;;;;;14.99;95.25;100885.97;4979403;28;20108;-83
2021/08/04 00:14:26;;;;;;;9.77;8.30;;;;;;;14.97;95.67;100888.91;4985606;28;20517;-81
2021/08/04 00:16:52;;;;;;;10.85;8.50;;;;;;;14.98;95.99;100887.84;4987508;28;20054;-83
2021/08/04 00:19:17;;;;;;;10.82;8.18;;;;;;;14.98;95.78;100887.84;4967615;28;20041;-82
2021/08/04 00:21:43;;;;;;;11.52;8.20;;;;;;;14.97;95.17;100886.19;4987514;28;20089;-83
2021/08/04 00:24:08;;;;;;;10.77;8.13;;;;;;;14.94;95.70;100886.56;4987277;28;20073;-84
2021/08/04 00:26:34;;;;;;;10.07;8.68;;;;;;;14.95;95.15;100888.22;4985700;28;20049;-84
2021/08/04 00:28:59;;;;;;;10.90;8.85;;;;;;;14.97;94.83;100888.91;4986650;28;20050;-81
2021/08/04 00:31:24;;;;;;;9.35;7.82;;;;;;;14.97;95.23;100886.19;4984549;28;20453;-82
2021/08/04 00:33:50;;;;;;;10.10;7.63;;;;;;;14.96;95.41;100892.63;5017588;28;20038;-83
2021/08/04 00:36:15;;;;;;;9.93;7.57;;;;;;;14.97;95.76;100893.47;4974427;28;20050;-81
2021/08/04 00:38:40;;;;;;;7.93;6.93;;;;;;;14.97;95.18;100891.59;4981151;28;20516;-84
2021/08/04 00:41:06;;;;;;;10.02;7.18;;;;;;;14.96;95.44;100889.94;4983386;28;20050;-83
2021/08/04 00:43:31;;;;;;;10.50;7.15;;;;;;;14.96;95.18;100889.94;4984450;28;20034;-83
2021/08/04 00:45:57;;;;;;;8.10;6.82;;;;;;;14.98;95.48;100893.25;4987243;28;20064;-82
2021/08/04 00:48:22;;;;;;;7.45;6.50;;;;;;;14.99;95.58;100892.25;4985928;28;20507;-81
2021/08/04 00:50:48;;;;;;;9.60;6.90;;;;;;;14.98;95.34;100900.53;4986230;28;20062;-83
2021/08/04 00:53:26;;;;;;;9.95;7.35;;;;;;;14.97;95.76;100888.91;4976661;28;20042;-82
2021/08/04 00:55:52;;;;;;;9.40;7.15;;;;;;;14.97;95.59;100894.28;5000222;28;20406;-83
2021/08/04 00:58:21;;;;;;;10.05;6.57;;;;;;;14.98;95.86;100895.13;4985529;28;20442;-83
2021/08/04 01:00:55;;;;;;;7.85;7.00;;;;;;;15.01;95.50;100894.75;4980719;28;20042;-84
2021/08/04 01:03:22;;;;;;;10.38;7.35;;;;;;;15.00;95.32;100893.09;4975535;28;20081;-82
2021/08/04 01:05:55;;;;;;;10.60;7.40;;;;;;;14.98;95.59;100898.66;4981212;28;20338;-85
2021/08/04 01:08:30;;;;;;;13.00;8.10;;;;;;;15.00;95.49;100895.78;4962758;28;20049;-82
2021/08/04 01:10:57;;;;;;;8.68;6.88;;;;;;;15.00;96.11;100896.63;4993909;28;20050;-83
2021/08/04 01:13:37;;;;;;;8.57;6.47;;;;;;;15.00;95.79;100887.69;4976110;28;20053;-81
2021/08/04 01:16:10;;;;;;;9.45;6.45;;;;;;;15.00;95.10;100883.09;4974943;28;20065;-81
2021/08/04 01:18:51;;;;;;;10.52;7.00;;;;;;;15.01;95.47;100894.75;4979891;28;20129;-83
2021/08/04 01:21:23;;;;;;;8.82;6.95;;;;;;;15.01;95.32;100890.16;4978393;28;20315;-82
2021/08/04 01:24:06;;;;;;;9.52;6.47;;;;;;;15.00;94.97;100888.50;4978281;28;20046;-83
2021/08/04 01:26:41;;;;;;;9.50;7.30;;;;;;;15.01;94.86;100890.16;4975925;28;20155;-81
2021/08/04 01:29:12;;;;;;;9.27;6.95;;;;;;;14.97;95.02;100888.06;4975412;28;20495;-81
2021/08/04 01:31:38;;;;;;;8.57;7.18;;;;;;;14.97;95.68;100886.19;4980446;28;20084;-83
2021/08/04 01:34:05;;;;;;;8.88;6.80;;;;;;;14.98;95.73;100885.16;4979384;28;20507;-80
2021/08/04 01:36:31;;;;;;;8.77;6.70;;;;;;;14.97;96.04;100879.97;4977807;28;20038;-84
2021/08/04 01:39:00;;;;;;;11.90;6.57;;;;;;;14.96;95.85;100889.06;4973953;28;20487;-80
2021/08/04 01:41:26;;;;;;;8.93;7.00;;;;;;;14.96;95.93;100883.66;4979496;28;20097;-83
2021/08/04 01:43:53;;;;;;;8.68;7.28;;;;;;;14.95;96.24;100879.28;4980194;28;20089;-82
2021/08/04 01:46:21;;;;;;;8.95;6.78;;;;;;;14.96;95.70;100879.13;4960414;28;20050;-81
2021/08/04 01:48:47;;;;;;;11.20;7.80;;;;;;;14.94;95.96;100875.75;4978600;28;20062;-82
2021/08/04 01:51:13;;;;;;;10.43;7.47;;;;;;;14.93;95.88;100878.63;4995408;28;20510;-82
2021/08/04 01:53:40;;;;;;;9.13;7.32;;;;;;;14.93;95.33;100878.63;4981981;28;20046;-81
2021/08/04 01:56:07;;;;;;;8.70;7.10;;;;;;;14.92;95.90;100880.50;4983384;28;20042;-80
2021/08/04 01:58:32;;;;;;;8.75;7.40;;;;;;;14.93;95.66;100884.03;4984033;28;20104;-81
2021/08/04 02:00:58;;;;;;;9.18;7.25;;;;;;;14.94;96.02;100877.63;4976437;28;20047;-82
2021/08/04 02:03:23;;;;;;;9.63;6.95;;;;;;;14.90;96.43;100877.16;4962832;28;20057;-82
2021/08/04 02:05:49;;;;;;;10.38;7.22;;;;;;;14.91;96.41;100878.03;4962804;28;20039;-83
2021/08/04 02:08:29;;;;;;;8.25;6.72;;;;;;;14.91;96.33;100880.72;4981438;28;20046;-80
2021/08/04 02:11:18;;;;;;;9.23;7.18;;;;;;;14.89;96.17;100876.31;4990086;28;20105;-84
2021/08/04 02:14:16;;;;;;;8.45;6.72;;;;;;;14.88;96.41;100873.84;4971780;28;20054;-82
2021/08/04 02:16:47;;;;;;;9.97;7.10;;;;;;;14.87;96.67;100874.84;4978935;28;20105;-84
2021/08/04 02:19:30;;;;;;;8.95;7.38;;;;;;;14.86;96.29;100874.00;4979700;28;20073;-83
2021/08/04 02:22:02;;;;;;;8.90;6.82;;;;;;;14.86;97.13;100874.00;4978188;28;20097;-81
2021/08/04 02:24:31;;;;;;;9.88;7.32;;;;;;;14.85;96.55;100868.81;4972689;28;20046;-83
2021/08/04 02:27:00;;;;;;;8.80;7.40;;;;;;;14.83;97.00;100881.66;4980637;28;20825;-83
2021/08/04 02:29:26;;;;;;;9.18;7.25;;;;;;;14.83;97.20;100868.97;4978571;28;20073;-81
2021/08/04 02:31:52;;;;;;;12.07;7.55;;;;;;;14.84;96.94;100873.34;5008224;28;20050;-83
2021/08/04 02:34:19;;;;;;;8.90;7.45;;;;;;;14.84;96.86;100867.94;4975960;28;20100;-82
2021/08/04 02:36:44;;;;;;;10.25;7.43;;;;;;;14.84;96.30;100867.13;4977623;28;20053;-83
2021/08/04 02:39:10;;;;;;;7.93;7.05;;;;;;;14.83;97.46;100868.16;4980031;28;20038;-82
2021/08/04 02:41:36;;;;;;;8.63;7.47;;;;;;;14.82;97.27;100866.50;4979750;28;20340;-83
2021/08/04 02:44:03;;;;;;;10.82;7.88;;;;;;;14.80;97.76;100871.22;5008643;28;20518;-81
2021/08/04 02:46:29;;;;;;;10.82;7.63;;;;;;;14.80;98.29;100865.84;4979398;28;20053;-83
2021/08/04 02:48:56;;;;;;;9.40;7.60;;;;;;;14.80;98.30;100865.84;4979175;28;20054;-81
2021/08/04 02:51:25;;;;;;;9.05;7.60;;;;;;;14.79;97.81;100869.56;4983418;28;20042;-80
2021/08/04 02:53:56;;;;;;;10.43;7.53;;;;;;;14.78;97.89;100867.88;4971482;28;20135;-84
2021/08/04 02:56:21;;;;;;;10.90;7.95;;;;;;;14.76;97.66;100865.38;4969722;28;20074;-82
2021/08/04 02:58:46;;;;;;;9.95;7.35;;;;;;;14.76;98.76;100869.94;5014044;28;20370;-81
2021/08/04 03:01:12;;;;;;;11.32;7.82;;;;;;;14.74;98.53;100866.59;4981396;28;20042;-80
2021/08/04 03:03:37;;;;;;;10.70;7.60;;;;;;;14.72;98.43;100868.66;4978489;28;20043;-81
2021/08/04 03:06:03;;;;;;;9.40;7.38;;;;;;;14.74;98.47;100872.00;4983879;28;20061;-80
2021/08/04 03:08:28;;;;;;;8.73;7.68;;;;;;;14.72;98.46;100872.19;4978293;28;20096;-83
2021/08/04 03:10:53;;;;;;;11.63;8.05;;;;;;;14.72;97.86;100868.66;4981468;28;20311;-82
2021/08/04 03:13:19;;;;;;;9.18;7.63;;;;;;;14.73;98.05;100873.00;4982395;28;20042;-83
2021/08/04 03:15:44;;;;;;;10.80;8.18;;;;;;;14.71;98.65;100869.69;4976355;28;20055;-82
2021/08/04 03:18:10;;;;;;;11.30;8.65;;;;;;;14.68;98.59;100870.88;4984869;28;20043;-81
2021/08/04 03:20:35;;;;;;;11.35;9.10;;;;;;;14.66;98.97;100868.38;4978493;28;20062;-83
2021/08/04 03:23:00;;;;;;;11.60;8.68;;;;;;;14.66;98.53;100879.16;4981642;28;20247;-81
2021/08/04 03:25:26;;;;;;;10.75;8.57;;;;;;;14.68;98.05;100870.06;4982046;28;20150;-83
2021/08/04 03:27:51;;;;;;;9.63;8.15;;;;;;;14.68;97.39;100872.75;4981532;28;20050;-81
2021/08/04 03:30:16;;;;;;;10.20;8.70;;;;;;;14.68;97.88;100867.34;4983457;28;20480;-82
2021/08/04 03:32:42;;;;;;;15.02;7.80;;;;;;;14.67;98.00;100871.91;4985903;28;20054;-83
2021/08/04 03:35:08;;;;;;;10.90;7.95;;;;;;;14.66;98.48;100873.75;5010162;28;20031;-83
2021/08/04 03:37:34;;;;;;;11.55;8.70;;;;;;;14.68;98.39;100867.34;4982532;28;20140;-81
2021/08/04 03:39:59;;;;;;;10.98;8.57;;;;;;;14.68;98.18;100861.97;4976339;28;20471;-81
2021/08/04 03:42:25;;;;;;;11.70;8.77;;;;;;;14.66;98.18;100875.63;4981198;28;20608;-83
2021/08/04 03:44:51;;;;;;;10.80;8.55;;;;;;;14.65;98.44;100874.81;4982717;28;20100;-81
2021/08/04 03:47:16;;;;;;;11.18;8.73;;;;;;;14.64;98.33;100870.44;4975578;28;20050;-84
2021/08/04 03:49:41;;;;;;;10.63;8.98;;;;;;;14.62;98.67;100875.19;4980750;28;20084;-83
2021/08/04 03:52:07;;;;;;;12.77;8.63;;;;;;;14.61;98.91;100870.78;4981414;28;20042;-81
2021/08/04 03:54:32;;;;;;;10.30;8.73;;;;;;;14.60;98.97;100866.44;4981099;28;20046;-84
2021/08/04 03:56:58;;;;;;;11.30;8.80;;;;;;;14.60;98.79;100871.81;4978531;28;20045;-82
2021/08/04 03:59:23;;;;;;;10.52;8.68;;;;;;;14.59;98.83;100864.75;4977349;28;20046;-80
2021/08/04 04:01:49;;;;;;;11.40;9.15;;;;;;;14.57;99.27;100872.22;4963965;28;20152;-82
2021/08/04 04:04:14;;;;;;;10.98;8.68;;;;;;;14.57;99.28;100868.66;4961220;28;20038;-80
2021/08/04 04:06:40;;;;;;;12.10;9.15;;;;;;;14.57;99.01;100865.97;4981636;28;20039;-82
2021/08/04 04:09:05;;;;;;;10.40;8.55;;;;;;;14.56;99.28;100864.31;4977003;28;20047;-80
2021/08/04 04:11:30;;;;;;;11.65;9.55;;;;;;;14.55;99.11;100868.00;4979952;28;20057;-81
2021/08/04 04:13:56;;;;;;;10.80;8.57;;;;;;;14.50;99.40;100865.00;4982567;28;20041;-81
2021/08/04 04:16:22;;;;;;;11.70;9.90;;;;;;;14.49;99.99;100868.75;4985783;28;20035;-81
2021/08/04 04:18:48;;;;;;;12.32;9.07;;;;;;;14.48;99.22;100873.31;4984616;28;20398;-82
2021/08/04 04:21:14;;;;;;;11.75;9.35;;;;;;;14.51;99.74;100877.50;4984750;28;20174;-84
2021/08/04 04:23:39;;;;;;;11.05;9.10;;;;;;;14.50;98.85;100873.97;4982494;28;20373;-82
2021/08/04 04:26:05;;;;;;;12.45;9.35;;;;;;;14.50;99.73;100876.66;4981771;28;20046;-81
2021/08/04 04:28:30;;;;;;;11.98;9.52;;;;;;;14.49;99.69;100880.38;4966078;28;20050;-81
2021/08/04 04:30:56;;;;;;;11.80;9.90;;;;;;;14.50;99.69;100882.06;4967797;28;20246;-81
2021/08/04 04:33:21;;;;;;;13.55;9.85;;;;;;;14.49;99.97;100885.78;4967369;28;20116;-81
2021/08/04 04:35:46;;;;;;;12.05;8.88;;;;;;;14.44;100.00;100885.50;4965804;28;20506;-81
2021/08/04 04:38:12;;;;;;;11.55;9.48;;;;;;;14.45;100.00;100884.50;4965202;28;20034;-81
2021/08/04 04:40:37;;;;;;;12.00;8.93;;;;;;;14.45;100.00;100889.88;4965653;28;20491;-81
2021/08/04 04:43:03;;;;;;;12.85;9.32;;;;;;;14.44;100.00;100890.88;4966369;28;20039;-81
2021/08/04 04:45:28;;;;;;;11.32;8.88;;;;;;;14.43;100.00;100891.94;4981818;28;20055;-81
2021/08/04 04:47:54;;;;;;;11.90;9.38;;;;;;;14.43;100.00;100887.34;4965069;28;20038;-82
2021/08/04 04:50:19;;;;;;;13.25;10.40;;;;;;;14.44;100.00;100888.19;4966503;28;20442;-82
2021/08/04 04:52:44;;;;;;;11.65;9.30;;;;;;;14.41;100.00;100888.56;4981571;28;20047;-82
2021/08/04 04:55:11;;;;;;;16.02;10.55;;;;;;;14.39;100.00;100891.47;4967582;28;20490;-81
2021/08/04 04:57:36;;;;;;;12.60;10.43;;;;;;;14.39;100.00;100880.66;4967234;28;20093;-82
2021/08/04 05:00:04;;;;;;;13.52;9.95;;;;;;;14.36;100.00;100886.44;4965602;28;20393;-82
2021/08/04 05:02:29;;;;;;;14.13;11.02;;;;;;;14.35;100.00;100895.56;4963752;28;20058;-81
2021/08/04 05:04:58;;;;;;;12.80;10.40;;;;;;;14.34;100.00;100896.59;4977446;28;20518;-83
2021/08/04 05:07:24;;;;;;;15.27;10.82;;;;;;;14.32;100.00;100900.50;4975766;28;20138;-83
2021/08/04 05:09:49;;;;;;;14.02;11.40;;;;;;;14.32;100.00;100895.09;4981615;28;20122;-82
2021/08/04 05:12:14;;;;;;;17.63;11.40;;;;;;;14.32;100.00;100903.19;4981481;28;20039;-81
2021/08/04 05:14:40;;;;;;;15.00;11.02;;;;;;;14.31;100.00;100896.97;5007986;28;20070;-83
2021/08/04 05:17:07;;;;;;;16.80;12.27;;;;;;;14.32;100.00;100903.19;4972279;28;20115;-83
2021/08/04 05:19:32;;;;;;;13.35;11.10;;;;;;;14.31;100.00;100902.34;4973993;28;20059;-83
2021/08/04 05:21:58;;;;;;;16.10;11.48;;;;;;;14.31;100.00;100915.03;4997589;28;20113;-83
2021/08/04 05:24:23;;;;;;;15.85;10.38;;;;;;;14.32;100.00;100905.88;4981916;28;20038;-83
2021/08/04 05:26:49;;;;;;;15.95;10.73;;;;;;;14.33;100.00;100911.13;4996034;28;20444;-83
2021/08/04 05:29:14;;;;;;;15.43;11.23;;;;;;;14.33;100.00;100913.81;4982162;28;20046;-83
2021/08/04 05:31:39;;;;;;;14.15;11.57;;;;;;;14.32;100.00;100914.81;4983447;28;20049;-82
2021/08/04 05:34:05;;;;;;;14.93;11.35;;;;;;;14.34;100.00;100920.03;4982742;28;20038;-80
2021/08/04 05:36:30;;;;;;;14.45;11.40;;;;;;;14.34;100.00;100920.88;4972253;28;20034;-83
2021/08/04 05:38:57;;;;;;;13.95;11.57;;;;;;;14.37;100.00;100919.69;4996497;28;20042;-82
2021/08/04 05:41:23;;;;;;;13.32;11.65;;;;;;;14.38;100.00;100922.16;4997526;28;20097;-82
2021/08/04 05:43:48;;;;;;;15.20;12.05;;;;;;;14.37;100.00;100919.69;4997555;28;20042;-83
2021/08/04 05:46:14;;;;;;;17.35;11.10;;;;;;;14.38;100.00;100915.94;4984017;28;20142;-80
2021/08/04 05:48:39;;;;;;;16.92;11.57;;;;;;;14.40;100.00;100922.00;4982582;28;20042;-83
2021/08/04 05:51:05;;;;;;;14.73;11.73;;;;;;;14.43;100.00;100918.94;4964478;28;20042;-81
2021/08/04 05:53:30;;;;;;;14.30;11.63;;;;;;;14.48;100.00;100924.59;4983420;28;20137;-82
2021/08/04 05:55:55;;;;;;;15.23;11.80;;;;;;;14.49;100.00;100915.47;4984925;28;20050;-82
2021/08/04 05:58:21;;;;;;;17.13;12.60;;;;;;;14.53;100.00;100924.06;4984798;28;20475;-81
2021/08/04 06:00:46;;;;;;;14.57;11.98;;;;;;;14.54;100.00;100923.88;4977196;28;20126;-84
2021/08/04 06:03:11;;;;;;;14.43;12.30;;;;;;;14.61;100.00;100937.47;4985848;28;20280;-84
2021/08/04 06:05:37;;;;;;;15.05;11.43;;;;;;;14.65;100.00;100934.22;4982819;28;20045;-82
2021/08/04 06:08:02;;;;;;;14.20;11.15;;;;;;;14.69;100.00;100939.25;4982381;28;20108;-82
2021/08/04 06:10:27;;;;;;;17.38;12.43;;;;;;;14.75;100.00;100935.78;4986008;28;20047;-81
2021/08/04 06:12:53;;;;;;;13.73;11.32;;;;;;;14.77;100.00;100934.56;4973717;28;20046;-83
2021/08/04 06:15:18;;;;;;;14.25;11.73;;;;;;;14.85;100.00;100941.75;4957995;28;20118;-85
2021/08/04 06:17:43;;;;;;;15.52;11.30;;;;;;;14.90;100.00;100942.00;4981359;28;20121;-82
2021/08/04 06:20:09;;;;;;;15.40;11.48;;;;;;;14.95;100.00;100944.97;4982987;28;20042;-81
2021/08/04 06:22:35;;;;;;;18.42;11.68;;;;;;;15.02;99.04;100950.50;4982384;28;20431;-80
2021/08/04 06:25:00;;;;;;;14.02;11.43;;;;;;;15.10;99.87;100942.25;4983011;28;20046;-83
2021/08/04 06:27:26;;;;;;;13.48;11.18;;;;;;;15.23;98.58;100946.97;4986020;28;20849;-83
2021/08/04 06:29:51;;;;;;;12.65;10.68;;;;;;;15.30;98.10;100945.16;4966705;28;20559;-84
2021/08/04 06:32:17;;;;;;;12.63;10.38;;;;;;;15.34;98.28;100943.78;4982557;28;20046;-79
2021/08/04 06:34:42;;;;;;;14.98;11.48;;;;;;;15.45;98.17;100943.28;4984601;28;20046;-84
2021/08/04 06:37:07;;;;;;;11.27;10.10;;;;;;;15.60;96.60;100947.78;4986900;28;20510;-81
2021/08/04 06:39:33;;;;;;;13.70;10.40;;;;;;;15.73;96.32;100950.63;4969022;28;20057;-82
2021/08/04 06:41:58;;;;;;;12.05;10.25;;;;;;;15.81;95.60;100949.66;4988926;28;20391;-82
2021/08/04 06:44:23;;;;;;;12.10;10.50;;;;;;;15.90;95.75;100954.72;4987742;28;20402;-80
2021/08/04 06:46:57;;;;;;;14.18;9.55;;;;;;;16.01;95.04;100956.06;4988193;28;20416;-79
2021/08/04 06:49:22;;;;;;;11.10;9.23;;;;;;;16.06;94.45;100947.38;4985856;28;20069;-80
2021/08/04 06:51:48;;;;;;;10.90;9.43;;;;;;;16.08;93.38;100945.28;5003110;28;20061;-86
2021/08/04 06:54:14;;;;;;;10.98;9.65;;;;;;;16.09;93.53;100955.94;4981724;28;20070;-80
2021/08/04 06:56:39;;;;;;;12.73;9.63;;;;;;;16.10;93.05;100951.34;4979100;28;20054;-84
2021/08/04 06:59:04;;;;;;;11.20;9.98;;;;;;;16.14;93.61;100949.91;4981066;28;20049;-82
2021/08/04 07:01:30;;;;;;;11.57;10.15;;;;;;;16.16;92.83;100950.56;4982586;28;20042;-83
2021/08/04 07:03:55;;;;;;;11.80;10.00;;;;;;;16.14;92.96;100948.06;4962461;28;20515;-82
2021/08/04 07:06:20;;;;;;;11.32;9.98;;;;;;;16.15;93.65;100957.03;4976786;28;20046;-80
2021/08/04 07:08:46;;;;;;;12.20;10.15;;;;;;;16.19;93.58;100956.41;4991877;28;20070;-80
2021/08/04 07:11:11;;;;;;;12.38;10.35;;;;;;;16.17;92.83;100963.06;4979666;28;20506;-84
2021/08/04 07:13:37;;;;;;;11.27;9.57;;;;;;;16.18;93.45;100962.88;4979462;28;20125;-83
2021/08/04 07:16:02;;;;;;;11.90;9.70;;;;;;;16.21;93.34;100967.06;4981028;28;20046;-84
2021/08/04 07:18:28;;;;;;;12.57;9.82;;;;;;;16.22;92.78;100957.88;4983119;28;20038;-84
2021/08/04 07:20:54;;;;;;;11.65;10.32;;;;;;;16.29;93.63;100964.22;4980047;28;20133;-84
2021/08/04 07:23:20;;;;;;;13.10;10.07;;;;;;;16.34;93.34;100963.59;4980995;28;20443;-82
2021/08/04 07:25:45;;;;;;;11.70;10.27;;;;;;;16.34;93.42;100956.34;4980886;28;20096;-81
2021/08/04 07:28:11;;;;;;;11.70;10.02;;;;;;;16.41;93.94;100957.19;4981153;28;20046;-81
2021/08/04 07:30:37;;;;;;;11.88;9.90;;;;;;;16.47;93.39;100956.41;4978360;28;20475;-83
2021/08/04 07:33:02;;;;;;;10.93;9.70;;;;;;;16.52;92.91;100954.97;4981883;28;20042;-83
2021/08/04 07:35:28;;;;;;;10.93;9.82;;;;;;;16.57;93.38;100949.78;4979796;28;20045;-83
2021/08/04 07:37:53;;;;;;;12.88;10.32;;;;;;;16.62;92.61;100947.31;4970866;28;20258;-82
2021/08/04 07:40:19;;;;;;;11.70;9.80;;;;;;;16.63;91.83;100948.97;4982048;28;20454;-80
2021/08/04 07:42:47;;;;;;;11.00;9.45;;;;;;;16.66;92.50;100954.03;4983764;28;20097;-84
2021/08/04 07:45:14;;;;;;;13.35;9.82;;;;;;;16.70;92.44;100955.28;5015010;28;20122;-82
2021/08/04 07:47:40;;;;;;;11.13;9.05;;;;;;;16.70;92.73;100952.56;4980318;28;20047;-83
2021/08/04 07:50:07;;;;;;;11.27;9.38;;;;;;;16.73;91.96;100954.88;4981656;28;20877;-80
2021/08/04 07:52:32;;;;;;;11.98;9.32;;;;;;;16.77;92.05;100945.31;4979549;28;20513;-87
2021/08/04 07:54:58;;;;;;;10.15;9.07;;;;;;;16.77;91.44;100952.63;4970113;28;20140;-83
2021/08/04 07:57:23;;;;;;;10.05;8.70;;;;;;;16.83;91.28;100959.94;4980430;28;20070;-82
2021/08/04 07:59:48;;;;;;;9.32;8.27;;;;;;;16.87;90.93;100951.22;4976052;28;20670;-85
2021/08/04 08:02:14;;;;;;;11.32;8.95;;;;;;;16.95;90.58;100952.09;4978469;28;20039;-84
2021/08/04 08:04:39;;;;;;;9.27;8.13;;;;;;;16.99;89.67;100947.94;4955159;28;20225;-82
2021/08/04 08:07:05;;;;;;;8.98;7.75;;;;;;;17.03;89.10;100946.47;4971031;28;20042;-82
2021/08/04 08:09:30;;;;;;;9.10;8.18;;;;;;;17.05;88.79;100947.13;5009463;28;20458;-86
2021/08/04 08:11:58;;;;;;;9.40;8.10;;;;;;;17.08;88.50;100946.72;4982022;28;20372;-82
2021/08/04 08:14:28;;;;;;;11.10;7.97;;;;;;;17.20;87.71;100953.22;4976712;28;20043;-83
2021/08/04 08:16:55;;;;;;;13.73;7.35;;;;;;;17.36;87.67;100939.28;4973357;28;20058;-81
2021/08/04 08:19:20;;;;;;;8.05;6.68;;;;;;;17.47;85.81;100950.59;4983280;28;20550;-84
2021/08/04 08:21:46;;;;;;;9.65;6.68;;;;;;;17.57;85.80;100940.97;4979169;28;20046;-87
2021/08/04 08:24:12;;;;;;;8.23;6.55;;;;;;;17.67;85.09;100946.03;4982612;28;20035;-81
2021/08/04 08:26:38;;;;;;;7.90;7.00;;;;;;;17.75;86.00;100939.53;5011167;28;20085;-80
2021/08/04 08:29:04;;;;;;;8.40;6.28;;;;;;;17.91;84.56;100938.34;4996860;28;20058;-81
2021/08/04 08:31:31;;;;;;;6.50;5.57;;;;;;;17.91;83.49;100939.16;4984293;28;20089;-80
2021/08/04 08:34:00;;;;;;;5.75;5.15;;;;;;;18.05;83.21;100937.28;4980620;28;20311;-82
2021/08/04 08:36:27;;;;;;;7.88;5.80;;;;;;;18.22;82.14;100941.25;4963710;28;20525;-84
2021/08/04 08:38:52;;;;;;;7.82;5.85;;;;;;;18.23;81.66;100942.91;4976117;28;20057;-84
2021/08/04 08:41:18;;;;;;;6.55;5.85;;;;;;;18.27;81.08;100937.91;4975493;28;20042;-81
2021/08/04 08:43:43;;;;;;;8.80;6.40;;;;;;;18.26;81.87;100937.03;4979716;28;20039;-85
2021/08/04 08:46:09;;;;;;;9.35;6.32;;;;;;;18.30;81.73;100939.34;4982357;28;20372;-84
2021/08/04 08:48:35;;;;;;;9.43;5.47;;;;;;;18.46;81.51;100944.31;4979184;28;20113;-81
2021/08/04 08:51:01;;;;;;;6.65;4.80;;;;;;;18.69;79.69;100941.13;4979988;28;20051;-81
2021/08/04 08:53:27;;;;;;;5.38;4.30;;;;;;;18.72;76.47;100946.97;4975463;28;20047;-81
2021/08/04 08:55:52;;;;;;;5.50;4.68;;;;;;;18.77;76.39;100935.50;5006061;28;20055;-81
2021/08/04 08:58:17;;;;;;;6.43;4.30;;;;;;;18.80;75.00;100936.94;4977555;28;20586;-85
2021/08/04 09:00:44;;;;;;;6.55;5.07;;;;;;;18.84;75.52;100938.16;4981185;28;20038;-81
2021/08/04 09:03:10;;;;;;;6.80;4.93;;;;;;;18.84;76.24;100941.72;4986881;28;20061;-81
2021/08/04 09:05:53;;;;;;;7.05;4.38;;;;;;;18.80;77.10;100942.38;4968537;28;20042;-84
2021/08/04 09:08:24;;;;;;;7.88;5.47;;;;;;;18.76;76.35;100941.13;4991561;28;20045;-80
2021/08/04 09:10:49;;;;;;;6.93;5.85;;;;;;;18.74;76.67;100935.09;4979674;28;20407;-82
2021/08/04 09:13:14;;;;;;;7.60;6.18;;;;;;;18.74;77.60;100943.25;4981977;28;20048;-81
2021/08/04 09:15:42;;;;;;;8.85;6.15;;;;;;;18.75;78.24;100936.75;4980022;28;20137;-83
2021/08/04 09:18:13;;;;;;;8.45;6.47;;;;;;;18.81;78.38;100930.44;4982882;28;20433;-81
2021/08/04 09:20:53;;;;;;;6.60;5.13;;;;;;;18.83;76.87;100936.50;4983130;28;20388;-83
2021/08/04 09:23:24;;;;;;;7.05;5.00;;;;;;;18.87;76.13;100932.31;4997757;28;20427;-86
2021/08/04 09:26:03;;;;;;;5.30;4.75;;;;;;;19.02;77.01;100930.16;4996429;28;20038;-83
2021/08/04 09:28:29;;;;;;;6.32;5.00;;;;;;;19.20;76.00;100928.59;4979039;28;20066;-83
2021/08/04 09:31:03;;;;;;;6.93;4.65;;;;;;;19.25;75.96;100928.75;4976897;28;20450;-85
2021/08/04 09:33:36;;;;;;;9.43;5.00;;;;;;;19.31;75.26;100936.91;4981661;28;20034;-82
2021/08/04 09:36:03;;;;;;;7.97;5.47;;;;;;;19.36;75.32;100933.50;4980226;28;20050;-84
2021/08/04 09:38:28;;;;;;;7.05;5.03;;;;;;;19.49;75.88;100930.72;4981640;28;20042;-85
2021/08/04 09:41:09;;;;;;;6.82;4.43;;;;;;;19.46;74.47;100927.59;4976336;28;20380;-85
2021/08/04 09:43:34;;;;;;;7.10;5.05;;;;;;;19.34;74.34;100930.19;4979774;28;20443;-83
2021/08/04 09:46:00;;;;;;;7.90;4.25;;;;;;;19.39;73.50;100924.91;4963330;28;20045;-83
2021/08/04 09:48:28;;;;;;;7.55;3.70;;;;;;;19.39;73.13;100933.06;4983407;28;20034;-83
2021/08/04 09:50:55;;;;;;;6.00;3.83;;;;;;;19.42;71.82;100934.53;4980252;28;20392;-85
2021/08/04 09:53:28;;;;;;;6.22;4.15;;;;;;;19.46;71.91;100933.06;4981194;28;20034;-85
2021/08/04 09:56:09;;;;;;;5.50;3.45;;;;;;;19.51;72.39;100915.00;4981784;28;20046;-84
2021/08/04 09:58:36;;;;;;;5.10;3.40;;;;;;;19.71;72.17;100914.91;4978868;28;20042;-83
2021/08/04 10:01:03;;;;;;;4.22;3.17;;;;;;;19.81;71.32;100919.84;4993472;28;20272;-82
2021/08/04 10:03:30;;;;;;;6.63;3.58;;;;;;;19.95;71.37;100924.09;4985219;28;20042;-83
2021/08/04 10:05:55;;;;;;;4.55;2.83;;;;;;;20.16;70.16;100914.69;4978975;28;20703;-84
2021/08/04 10:08:21;;;;;;;6.32;3.50;;;;;;;20.29;71.68;100906.38;4983379;28;20037;-84
2021/08/04 10:10:50;;;;;;;5.13;3.33;;;;;;;20.24;69.98;100902.66;4980893;28;20100;-82
2021/08/04 10:13:17;;;;;;;;;;;;;;;20.43;69.82;100904.34;4984170;28;20164;-82
2021/08/04 10:15:48;;;;;;;3.88;2.58;;;;;;;20.53;69.23;100912.03;4981025;28;19957;-86
2021/08/04 10:18:19;;;;;;;4.40;2.70;;;;;;;20.73;70.13;100901.72;4986221;28;20030;-85
2021/08/04 10:20:46;;;;;;;5.53;3.10;;;;;;;20.76;67.58;100905.88;4992164;28;20053;-82
2021/08/04 10:23:15;;;;;;;4.68;2.67;;;;;;;20.84;67.22;100907.47;4986413;28;20122;-82
2021/08/04 10:25:42;;;;;;;4.55;2.35;;;;;;;20.83;69.24;100906.66;4985542;28;20045;-81
2021/08/04 10:28:08;;;;;;;4.68;2.88;;;;;;;20.91;68.32;100900.84;4986504;28;20121;-84
2021/08/04 10:30:37;;;;;;;5.05;2.58;;;;;;;21.03;67.91;100897.34;4981788;28;20057;-84
2021/08/04 10:33:07;;;;;;;4.93;2.40;;;;;;;21.05;66.01;100897.97;4998578;28;20370;-84
2021/08/04 10:35:38;;;;;;;3.85;2.35;;;;;;;21.14;66.74;100896.56;4983869;28;20043;-84
2021/08/04 10:38:07;;;;;;;9.20;2.60;;;;;;;21.23;66.34;100900.63;4993445;28;20043;-84
2021/08/04 10:40:33;;;;;;;4.28;2.80;;;;;;;21.38;66.01;100890.16;5000374;28;20039;-84
2021/08/04 10:42:59;;;;;;;8.93;3.25;;;;;;;21.56;68.33;100893.88;4983875;28;20045;-83
2021/08/04 10:45:26;;;;;;;5.57;3.22;;;;;;;21.64;66.43;100893.53;4991869;28;20030;-85
2021/08/04 10:47:56;;;;;;;4.85;3.40;;;;;;;21.61;67.35;100883.09;4996136;28;20472;-83
2021/08/04 10:50:22;;;;;;;4.93;3.10;;;;;;;21.66;66.44;100893.28;4982330;28;20042;-84
2021/08/04 10:52:56;;;;;;;3.97;2.90;;;;;;;21.52;65.78;100896.25;4978886;28;20507;-83
2021/08/04 10:55:22;;;;;;;4.90;2.75;;;;;;;21.43;64.33;100894.06;4984151;28;20739;-84
2021/08/04 10:58:17;;;;;;;4.45;3.22;;;;;;;21.39;63.06;100886.34;4984037;28;20038;-80
2021/08/04 11:00:43;;;;;;;5.53;2.80;;;;;;;21.38;64.95;100890.16;4978945;28;20121;-80
2021/08/04 11:03:58;;;;;;;5.78;3.40;;;;;;;21.50;65.66;100879.25;4984369;28;20113;-81
2021/08/04 11:06:23;;;;;;;5.20;3.42;;;;;;;21.60;65.24;100884.13;4983384;28;20508;-81
2021/08/04 11:09:11;;;;;;;3.75;2.65;;;;;;;21.63;65.85;100876.31;4980959;28;20050;-80
2021/08/04 11:11:51;;;;;;;5.00;2.65;;;;;;;21.76;67.03;100871.69;4979649;28;20137;-83
2021/08/04 11:14:53;;;;;;;5.38;3.00;;;;;;;21.91;64.99;100871.22;4980452;28;20050;-84
2021/08/04 11:17:22;;;;;;;6.18;3.50;;;;;;;22.01;65.46;100871.44;4963137;28;20376;-81
2021/08/04 11:19:56;;;;;;;4.55;3.10;;;;;;;22.05;65.10;100876.22;4979573;28;20129;-81
2021/08/04 11:22:24;;;;;;;6.40;3.58;;;;;;;22.24;64.81;100874.22;4985050;28;20038;-81